sensor_id;sensor_type;location;lat;lon;timestamp;P1;durP1;ratioP1;P2;durP2;ratioP2
60641;SDS011;46837;52.446;-1.930;2023-04-24T00:00:11;21.18;;;15.18;;
60641;SDS011;46837;52.446;-1.930;2023-04-24T00:01:08;21.34;;;14.04;;
60641;SDS011;46837;52.446;-1.930;2023-04-24T00:02:08;17.24;;;12.36;;
60641;SDS011;46837;52.446;-1.930;2023-04-24T00:03:07;16.22;;;12.04;;
60641;SDS011;46837;52.446;-1.930;2023-04-24T00:04:07;13.76;;;9.98;;
60641;SDS011;46837;52.446;-1.930;2023-04-24T00:05:07;19.54;;;11.92;;
60641;SDS011;46837;52.446;-1.930;2023-04-24T00:06:07;12.58;;;10.46;;
60641;SDS011;46837;52.446;-1.930;2023-04-24T00:07:07;13.26;;;9.64;;
60641;SDS011;46837;52.446;-1.930;2023-04-24T00:08:07;14.96;;;10.62;;
60641;SDS011;46837;52.446;-1.930;2023-04-24T00:09:07;11.14;;;9.40;;
60641;SDS011;46837;52.446;-1.930;2023-04-24T00:10:07;12.54;;;9.00;;
60641;SDS011;46837;52.446;-1.930;2023-04-24T00:11:07;16.38;;;10.70;;
60641;SDS011;46837;52.446;-1.930;2023-04-24T00:12:07;14.14;;;10.28;;
60641;SDS011;46837;52.446;-1.930;2023-04-24T00:13:07;12.22;;;9.64;;
60641;SDS011;46837;52.446;-1.930;2023-04-24T00:14:07;16.98;;;10.10;;
60641;SDS011;46837;52.446;-1.930;2023-04-24T00:15:07;12.02;;;8.58;;
60641;SDS011;46837;52.446;-1.930;2023-04-24T00:16:07;12.62;;;9.06;;
60641;SDS011;46837;52.446;-1.930;2023-04-24T00:17:07;13.86;;;10.00;;
60641;SDS011;46837;52.446;-1.930;2023-04-24T00:18:07;13.66;;;10.54;;
60641;SDS011;46837;52.446;-1.930;2023-04-24T00:19:07;12.52;;;9.96;;
60641;SDS011;46837;52.446;-1.930;2023-04-24T00:20:07;17.94;;;10.22;;
60641;SDS011;46837;52.446;-1.930;2023-04-24T00:21:07;14.76;;;10.20;;
60641;SDS011;46837;52.446;-1.930;2023-04-24T00:22:07;12.68;;;9.72;;
60641;SDS011;46837;52.446;-1.930;2023-04-24T00:23:07;10.46;;;9.40;;
60641;SDS011;46837;52.446;-1.930;2023-04-24T00:24:07;15.02;;;10.28;;
60641;SDS011;46837;52.446;-1.930;2023-04-24T00:25:07;14.70;;;9.90;;
60641;SDS011;46837;52.446;-1.930;2023-04-24T00:26:07;16.18;;;9.96;;
60641;SDS011;46837;52.446;-1.930;2023-04-24T00:27:07;11.06;;;9.50;;
60641;SDS011;46837;52.446;-1.930;2023-04-24T00:28:07;18.48;;;12.52;;
60641;SDS011;46837;52.446;-1.930;2023-04-24T00:29:07;14.34;;;10.02;;
60641;SDS011;46837;52.446;-1.930;2023-04-24T00:30:07;17.10;;;11.00;;
60641;SDS011;46837;52.446;-1.930;2023-04-24T00:31:07;13.38;;;10.10;;
60641;SDS011;46837;52.446;-1.930;2023-04-24T00:32:07;12.14;;;10.86;;
60641;SDS011;46837;52.446;-1.930;2023-04-24T00:33:07;10.52;;;8.98;;
60641;SDS011;46837;52.446;-1.930;2023-04-24T00:34:07;16.66;;;9.40;;
60641;SDS011;46837;52.446;-1.930;2023-04-24T00:35:07;12.70;;;11.24;;
60641;SDS011;46837;52.446;-1.930;2023-04-24T00:36:07;11.04;;;9.56;;
60641;SDS011;46837;52.446;-1.930;2023-04-24T00:37:07;10.34;;;9.24;;
60641;SDS011;46837;52.446;-1.930;2023-04-24T00:38:07;13.22;;;9.94;;
60641;SDS011;46837;52.446;-1.930;2023-04-24T00:39:07;14.56;;;10.48;;
60641;SDS011;46837;52.446;-1.930;2023-04-24T00:40:07;12.52;;;10.48;;
60641;SDS011;46837;52.446;-1.930;2023-04-24T00:41:07;12.92;;;9.64;;
60641;SDS011;46837;52.446;-1.930;2023-04-24T00:42:07;11.92;;;9.64;;
60641;SDS011;46837;52.446;-1.930;2023-04-24T00:43:07;14.68;;;10.22;;
60641;SDS011;46837;52.446;-1.930;2023-04-24T00:44:07;10.14;;;8.72;;
60641;SDS011;46837;52.446;-1.930;2023-04-24T00:45:07;13.28;;;9.84;;
60641;SDS011;46837;52.446;-1.930;2023-04-24T00:46:07;12.52;;;9.94;;
60641;SDS011;46837;52.446;-1.930;2023-04-24T00:47:07;14.24;;;11.26;;
60641;SDS011;46837;52.446;-1.930;2023-04-24T00:48:07;15.80;;;10.56;;
60641;SDS011;46837;52.446;-1.930;2023-04-24T00:49:07;12.78;;;10.06;;
60641;SDS011;46837;52.446;-1.930;2023-04-24T00:50:07;13.80;;;11.52;;
60641;SDS011;46837;52.446;-1.930;2023-04-24T00:51:07;15.12;;;10.34;;
60641;SDS011;46837;52.446;-1.930;2023-04-24T00:52:09;19.50;;;12.16;;
60641;SDS011;46837;52.446;-1.930;2023-04-24T00:53:07;15.92;;;9.36;;
60641;SDS011;46837;52.446;-1.930;2023-04-24T00:54:07;15.98;;;9.66;;
60641;SDS011;46837;52.446;-1.930;2023-04-24T00:55:07;10.04;;;9.00;;
60641;SDS011;46837;52.446;-1.930;2023-04-24T00:56:07;12.32;;;9.38;;
60641;SDS011;46837;52.446;-1.930;2023-04-24T00:57:07;18.24;;;11.74;;
60641;SDS011;46837;52.446;-1.930;2023-04-24T00:58:07;12.42;;;9.88;;
60641;SDS011;46837;52.446;-1.930;2023-04-24T00:59:07;12.78;;;10.86;;
60641;SDS011;46837;52.446;-1.930;2023-04-24T01:00:07;12.00;;;10.16;;
60641;SDS011;46837;52.446;-1.930;2023-04-24T01:01:07;13.90;;;9.86;;
60641;SDS011;46837;52.446;-1.930;2023-04-24T01:02:07;11.52;;;9.76;;
60641;SDS011;46837;52.446;-1.930;2023-04-24T01:03:07;10.40;;;8.42;;
60641;SDS011;46837;52.446;-1.930;2023-04-24T01:04:09;11.60;;;10.22;;
60641;SDS011;46837;52.446;-1.930;2023-04-24T01:05:09;11.52;;;9.24;;
60641;SDS011;46837;52.446;-1.930;2023-04-24T01:06:07;14.84;;;8.78;;
60641;SDS011;46837;52.446;-1.930;2023-04-24T01:07:11;16.88;;;9.64;;
60641;SDS011;46837;52.446;-1.930;2023-04-24T01:08:07;16.04;;;8.72;;
60641;SDS011;46837;52.446;-1.930;2023-04-24T01:09:07;10.54;;;9.32;;
60641;SDS011;46837;52.446;-1.930;2023-04-24T01:10:07;12.88;;;9.12;;
60641;SDS011;46837;52.446;-1.930;2023-04-24T01:11:07;14.64;;;8.48;;
60641;SDS011;46837;52.446;-1.930;2023-04-24T01:12:07;12.02;;;8.64;;
60641;SDS011;46837;52.446;-1.930;2023-04-24T01:13:09;15.34;;;8.82;;
60641;SDS011;46837;52.446;-1.930;2023-04-24T01:14:07;10.58;;;8.16;;
60641;SDS011;46837;52.446;-1.930;2023-04-24T01:15:07;15.06;;;9.46;;
60641;SDS011;46837;52.446;-1.930;2023-04-24T01:16:07;11.96;;;9.92;;
60641;SDS011;46837;52.446;-1.930;2023-04-24T01:17:07;18.20;;;9.04;;
60641;SDS011;46837;52.446;-1.930;2023-04-24T01:18:07;13.08;;;9.20;;
60641;SDS011;46837;52.446;-1.930;2023-04-24T01:19:07;11.94;;;9.68;;
60641;SDS011;46837;52.446;-1.930;2023-04-24T01:20:07;12.66;;;9.08;;
60641;SDS011;46837;52.446;-1.930;2023-04-24T01:21:07;14.46;;;8.88;;
60641;SDS011;46837;52.446;-1.930;2023-04-24T01:22:08;11.84;;;8.88;;
60641;SDS011;46837;52.446;-1.930;2023-04-24T01:23:07;11.32;;;8.38;;
60641;SDS011;46837;52.446;-1.930;2023-04-24T01:24:07;12.34;;;9.34;;
60641;SDS011;46837;52.446;-1.930;2023-04-24T01:25:07;15.86;;;7.80;;
60641;SDS011;46837;52.446;-1.930;2023-04-24T01:26:07;16.04;;;9.28;;
60641;SDS011;46837;52.446;-1.930;2023-04-24T01:27:07;12.94;;;8.72;;
60641;SDS011;46837;52.446;-1.930;2023-04-24T01:28:07;14.38;;;9.14;;
60641;SDS011;46837;52.446;-1.930;2023-04-24T01:29:07;13.16;;;7.60;;
60641;SDS011;46837;52.446;-1.930;2023-04-24T01:30:07;16.52;;;8.56;;
60641;SDS011;46837;52.446;-1.930;2023-04-24T01:31:07;12.96;;;7.14;;
60641;SDS011;46837;52.446;-1.930;2023-04-24T01:32:07;10.38;;;7.48;;
60641;SDS011;46837;52.446;-1.930;2023-04-24T01:33:07;10.08;;;7.24;;
60641;SDS011;46837;52.446;-1.930;2023-04-24T01:34:07;12.00;;;7.26;;
60641;SDS011;46837;52.446;-1.930;2023-04-24T01:35:07;9.42;;;8.30;;
60641;SDS011;46837;52.446;-1.930;2023-04-24T01:36:07;12.30;;;8.42;;
60641;SDS011;46837;52.446;-1.930;2023-04-24T01:37:07;14.66;;;7.68;;
60641;SDS011;46837;52.446;-1.930;2023-04-24T01:38:07;23.12;;;7.46;;
60641;SDS011;46837;52.446;-1.930;2023-04-24T01:39:07;13.62;;;9.04;;
60641;SDS011;46837;52.446;-1.930;2023-04-24T01:40:07;15.40;;;7.92;;
60641;SDS011;46837;52.446;-1.930;2023-04-24T01:41:07;17.16;;;7.80;;
60641;SDS011;46837;52.446;-1.930;2023-04-24T01:42:07;10.40;;;6.18;;
60641;SDS011;46837;52.446;-1.930;2023-04-24T01:43:07;17.84;;;7.30;;
60641;SDS011;46837;52.446;-1.930;2023-04-24T01:44:07;13.70;;;8.48;;
60641;SDS011;46837;52.446;-1.930;2023-04-24T01:45:07;10.64;;;6.86;;
60641;SDS011;46837;52.446;-1.930;2023-04-24T01:46:07;9.42;;;7.42;;
60641;SDS011;46837;52.446;-1.930;2023-04-24T01:47:07;13.98;;;8.86;;
60641;SDS011;46837;52.446;-1.930;2023-04-24T01:48:07;14.74;;;9.14;;
60641;SDS011;46837;52.446;-1.930;2023-04-24T01:49:07;13.56;;;8.62;;
60641;SDS011;46837;52.446;-1.930;2023-04-24T01:50:07;18.54;;;8.88;;
60641;SDS011;46837;52.446;-1.930;2023-04-24T01:51:07;16.40;;;7.10;;
60641;SDS011;46837;52.446;-1.930;2023-04-24T01:52:07;14.60;;;7.26;;
60641;SDS011;46837;52.446;-1.930;2023-04-24T01:53:07;13.68;;;7.06;;
60641;SDS011;46837;52.446;-1.930;2023-04-24T01:54:07;13.90;;;7.12;;
60641;SDS011;46837;52.446;-1.930;2023-04-24T01:55:07;16.58;;;7.38;;
60641;SDS011;46837;52.446;-1.930;2023-04-24T01:56:07;9.90;;;6.42;;
60641;SDS011;46837;52.446;-1.930;2023-04-24T01:57:07;16.36;;;7.16;;
60641;SDS011;46837;52.446;-1.930;2023-04-24T01:58:07;13.92;;;7.10;;
60641;SDS011;46837;52.446;-1.930;2023-04-24T01:59:07;14.00;;;7.30;;
60641;SDS011;46837;52.446;-1.930;2023-04-24T02:00:07;9.96;;;6.58;;
60641;SDS011;46837;52.446;-1.930;2023-04-24T02:01:07;9.36;;;6.14;;
60641;SDS011;46837;52.446;-1.930;2023-04-24T02:02:07;13.90;;;8.16;;
60641;SDS011;46837;52.446;-1.930;2023-04-24T02:03:07;16.46;;;6.78;;
60641;SDS011;46837;52.446;-1.930;2023-04-24T02:04:07;11.76;;;5.98;;
60641;SDS011;46837;52.446;-1.930;2023-04-24T02:05:07;12.92;;;6.72;;
60641;SDS011;46837;52.446;-1.930;2023-04-24T02:06:07;15.86;;;7.36;;
60641;SDS011;46837;52.446;-1.930;2023-04-24T02:07:07;11.62;;;6.74;;
60641;SDS011;46837;52.446;-1.930;2023-04-24T02:08:07;10.88;;;5.94;;
60641;SDS011;46837;52.446;-1.930;2023-04-24T02:09:07;10.20;;;6.96;;
60641;SDS011;46837;52.446;-1.930;2023-04-24T02:10:07;12.56;;;6.78;;
60641;SDS011;46837;52.446;-1.930;2023-04-24T02:11:08;15.54;;;6.80;;
60641;SDS011;46837;52.446;-1.930;2023-04-24T02:12:07;11.86;;;7.08;;
60641;SDS011;46837;52.446;-1.930;2023-04-24T02:13:07;16.08;;;7.86;;
60641;SDS011;46837;52.446;-1.930;2023-04-24T02:14:07;13.80;;;7.12;;
60641;SDS011;46837;52.446;-1.930;2023-04-24T02:15:07;13.72;;;8.22;;
60641;SDS011;46837;52.446;-1.930;2023-04-24T02:16:07;12.92;;;6.58;;
60641;SDS011;46837;52.446;-1.930;2023-04-24T02:17:07;11.62;;;6.66;;
60641;SDS011;46837;52.446;-1.930;2023-04-24T02:18:07;11.56;;;6.26;;
60641;SDS011;46837;52.446;-1.930;2023-04-24T02:19:07;15.08;;;6.30;;
60641;SDS011;46837;52.446;-1.930;2023-04-24T02:20:07;18.60;;;6.62;;
60641;SDS011;46837;52.446;-1.930;2023-04-24T02:21:07;17.78;;;7.06;;
60641;SDS011;46837;52.446;-1.930;2023-04-24T02:22:07;15.58;;;7.40;;
60641;SDS011;46837;52.446;-1.930;2023-04-24T02:23:07;9.36;;;6.54;;
60641;SDS011;46837;52.446;-1.930;2023-04-24T02:24:07;17.88;;;6.86;;
60641;SDS011;46837;52.446;-1.930;2023-04-24T02:25:07;12.74;;;6.94;;
60641;SDS011;46837;52.446;-1.930;2023-04-24T02:26:07;14.10;;;6.66;;
60641;SDS011;46837;52.446;-1.930;2023-04-24T02:27:07;16.30;;;7.82;;
60641;SDS011;46837;52.446;-1.930;2023-04-24T02:28:07;11.60;;;7.16;;
60641;SDS011;46837;52.446;-1.930;2023-04-24T02:29:07;13.24;;;6.26;;
60641;SDS011;46837;52.446;-1.930;2023-04-24T02:30:07;15.74;;;7.04;;
60641;SDS011;46837;52.446;-1.930;2023-04-24T02:31:07;14.54;;;8.62;;
60641;SDS011;46837;52.446;-1.930;2023-04-24T02:32:07;9.64;;;6.02;;
60641;SDS011;46837;52.446;-1.930;2023-04-24T02:33:07;13.38;;;6.62;;
60641;SDS011;46837;52.446;-1.930;2023-04-24T02:34:07;14.86;;;7.04;;
60641;SDS011;46837;52.446;-1.930;2023-04-24T02:35:07;14.52;;;7.28;;
60641;SDS011;46837;52.446;-1.930;2023-04-24T02:36:07;10.00;;;6.46;;
60641;SDS011;46837;52.446;-1.930;2023-04-24T02:37:07;14.96;;;6.84;;
60641;SDS011;46837;52.446;-1.930;2023-04-24T02:38:07;12.88;;;6.50;;
60641;SDS011;46837;52.446;-1.930;2023-04-24T02:39:07;15.66;;;7.00;;
60641;SDS011;46837;52.446;-1.930;2023-04-24T02:40:07;14.54;;;6.58;;
60641;SDS011;46837;52.446;-1.930;2023-04-24T02:41:07;11.94;;;5.84;;
60641;SDS011;46837;52.446;-1.930;2023-04-24T02:42:07;15.42;;;6.58;;
60641;SDS011;46837;52.446;-1.930;2023-04-24T02:43:07;21.12;;;8.06;;
60641;SDS011;46837;52.446;-1.930;2023-04-24T02:44:07;12.00;;;6.30;;
60641;SDS011;46837;52.446;-1.930;2023-04-24T02:45:07;14.62;;;6.86;;
60641;SDS011;46837;52.446;-1.930;2023-04-24T02:46:07;20.96;;;7.46;;
60641;SDS011;46837;52.446;-1.930;2023-04-24T02:47:07;13.60;;;6.32;;
60641;SDS011;46837;52.446;-1.930;2023-04-24T02:48:07;14.36;;;6.52;;
60641;SDS011;46837;52.446;-1.930;2023-04-24T02:49:07;13.80;;;6.88;;
60641;SDS011;46837;52.446;-1.930;2023-04-24T02:50:07;13.10;;;6.28;;
60641;SDS011;46837;52.446;-1.930;2023-04-24T02:51:07;14.02;;;6.46;;
60641;SDS011;46837;52.446;-1.930;2023-04-24T02:52:07;13.64;;;6.68;;
60641;SDS011;46837;52.446;-1.930;2023-04-24T02:53:07;12.76;;;4.82;;
60641;SDS011;46837;52.446;-1.930;2023-04-24T02:54:07;13.88;;;6.38;;
60641;SDS011;46837;52.446;-1.930;2023-04-24T02:55:07;8.78;;;5.68;;
60641;SDS011;46837;52.446;-1.930;2023-04-24T02:56:07;9.92;;;5.08;;
60641;SDS011;46837;52.446;-1.930;2023-04-24T02:57:07;22.94;;;7.58;;
60641;SDS011;46837;52.446;-1.930;2023-04-24T02:58:07;12.76;;;6.42;;
60641;SDS011;46837;52.446;-1.930;2023-04-24T02:59:07;13.74;;;5.88;;
60641;SDS011;46837;52.446;-1.930;2023-04-24T03:00:07;18.44;;;6.34;;
60641;SDS011;46837;52.446;-1.930;2023-04-24T03:01:07;14.72;;;5.26;;
60641;SDS011;46837;52.446;-1.930;2023-04-24T03:02:07;13.34;;;4.94;;
60641;SDS011;46837;52.446;-1.930;2023-04-24T03:03:07;13.86;;;5.72;;
60641;SDS011;46837;52.446;-1.930;2023-04-24T03:04:07;14.70;;;6.06;;
60641;SDS011;46837;52.446;-1.930;2023-04-24T03:05:07;10.68;;;5.10;;
60641;SDS011;46837;52.446;-1.930;2023-04-24T03:06:07;14.74;;;6.86;;
60641;SDS011;46837;52.446;-1.930;2023-04-24T03:07:07;13.72;;;5.04;;
60641;SDS011;46837;52.446;-1.930;2023-04-24T03:08:07;16.78;;;5.98;;
60641;SDS011;46837;52.446;-1.930;2023-04-24T03:09:07;11.88;;;5.52;;
60641;SDS011;46837;52.446;-1.930;2023-04-24T03:10:07;10.46;;;5.66;;
60641;SDS011;46837;52.446;-1.930;2023-04-24T03:11:07;9.54;;;4.46;;
60641;SDS011;46837;52.446;-1.930;2023-04-24T03:12:07;13.82;;;5.62;;
60641;SDS011;46837;52.446;-1.930;2023-04-24T03:13:07;15.04;;;5.64;;
60641;SDS011;46837;52.446;-1.930;2023-04-24T03:14:07;16.82;;;5.10;;
60641;SDS011;46837;52.446;-1.930;2023-04-24T03:15:07;19.28;;;5.58;;
60641;SDS011;46837;52.446;-1.930;2023-04-24T03:16:07;16.28;;;4.72;;
60641;SDS011;46837;52.446;-1.930;2023-04-24T03:17:07;15.46;;;5.84;;
60641;SDS011;46837;52.446;-1.930;2023-04-24T03:18:07;12.50;;;5.68;;
60641;SDS011;46837;52.446;-1.930;2023-04-24T03:19:07;14.22;;;5.38;;
60641;SDS011;46837;52.446;-1.930;2023-04-24T03:20:11;11.70;;;5.74;;
60641;SDS011;46837;52.446;-1.930;2023-04-24T03:21:07;12.48;;;5.06;;
60641;SDS011;46837;52.446;-1.930;2023-04-24T03:22:07;16.76;;;6.06;;
60641;SDS011;46837;52.446;-1.930;2023-04-24T03:23:07;11.78;;;5.66;;
60641;SDS011;46837;52.446;-1.930;2023-04-24T03:24:07;13.32;;;5.58;;
60641;SDS011;46837;52.446;-1.930;2023-04-24T03:25:07;15.74;;;6.02;;
60641;SDS011;46837;52.446;-1.930;2023-04-24T03:26:07;21.54;;;5.64;;
60641;SDS011;46837;52.446;-1.930;2023-04-24T03:27:07;12.64;;;5.96;;
60641;SDS011;46837;52.446;-1.930;2023-04-24T03:28:07;13.88;;;6.26;;
60641;SDS011;46837;52.446;-1.930;2023-04-24T03:29:07;19.74;;;8.20;;
60641;SDS011;46837;52.446;-1.930;2023-04-24T03:30:07;12.76;;;5.70;;
60641;SDS011;46837;52.446;-1.930;2023-04-24T03:31:07;13.50;;;6.66;;
60641;SDS011;46837;52.446;-1.930;2023-04-24T03:32:07;14.52;;;5.70;;
60641;SDS011;46837;52.446;-1.930;2023-04-24T03:33:07;13.62;;;6.42;;
60641;SDS011;46837;52.446;-1.930;2023-04-24T03:34:07;11.88;;;6.04;;
60641;SDS011;46837;52.446;-1.930;2023-04-24T03:35:07;11.96;;;4.76;;
60641;SDS011;46837;52.446;-1.930;2023-04-24T03:36:07;15.38;;;5.70;;
60641;SDS011;46837;52.446;-1.930;2023-04-24T03:37:07;12.50;;;5.64;;
60641;SDS011;46837;52.446;-1.930;2023-04-24T03:38:07;13.42;;;5.72;;
60641;SDS011;46837;52.446;-1.930;2023-04-24T03:39:07;9.36;;;5.16;;
60641;SDS011;46837;52.446;-1.930;2023-04-24T03:40:07;10.96;;;4.60;;
60641;SDS011;46837;52.446;-1.930;2023-04-24T03:41:07;14.54;;;4.70;;
60641;SDS011;46837;52.446;-1.930;2023-04-24T03:42:07;8.84;;;4.30;;
60641;SDS011;46837;52.446;-1.930;2023-04-24T03:43:07;9.10;;;3.70;;
60641;SDS011;46837;52.446;-1.930;2023-04-24T03:44:07;6.14;;;3.34;;
60641;SDS011;46837;52.446;-1.930;2023-04-24T03:45:07;8.68;;;3.94;;
60641;SDS011;46837;52.446;-1.930;2023-04-24T03:46:07;9.70;;;3.60;;
60641;SDS011;46837;52.446;-1.930;2023-04-24T03:47:07;8.06;;;2.86;;
60641;SDS011;46837;52.446;-1.930;2023-04-24T03:48:07;11.68;;;3.16;;
60641;SDS011;46837;52.446;-1.930;2023-04-24T03:49:07;8.96;;;3.84;;
60641;SDS011;46837;52.446;-1.930;2023-04-24T03:50:07;5.94;;;2.42;;
60641;SDS011;46837;52.446;-1.930;2023-04-24T03:51:07;6.84;;;2.84;;
60641;SDS011;46837;52.446;-1.930;2023-04-24T03:52:07;7.54;;;2.54;;
60641;SDS011;46837;52.446;-1.930;2023-04-24T03:53:07;8.74;;;2.78;;
60641;SDS011;46837;52.446;-1.930;2023-04-24T03:54:07;10.46;;;3.02;;
60641;SDS011;46837;52.446;-1.930;2023-04-24T03:55:07;5.36;;;2.44;;
60641;SDS011;46837;52.446;-1.930;2023-04-24T03:56:07;4.00;;;2.40;;
60641;SDS011;46837;52.446;-1.930;2023-04-24T03:57:07;5.34;;;2.80;;
60641;SDS011;46837;52.446;-1.930;2023-04-24T03:58:07;6.02;;;3.30;;
60641;SDS011;46837;52.446;-1.930;2023-04-24T03:59:07;7.00;;;3.52;;
60641;SDS011;46837;52.446;-1.930;2023-04-24T04:00:07;5.68;;;2.50;;
60641;SDS011;46837;52.446;-1.930;2023-04-24T04:01:07;5.46;;;2.70;;
60641;SDS011;46837;52.446;-1.930;2023-04-24T04:02:07;6.76;;;3.10;;
60641;SDS011;46837;52.446;-1.930;2023-04-24T04:03:07;8.90;;;2.64;;
60641;SDS011;46837;52.446;-1.930;2023-04-24T04:04:07;9.92;;;2.78;;
60641;SDS011;46837;52.446;-1.930;2023-04-24T04:05:07;8.26;;;2.70;;
60641;SDS011;46837;52.446;-1.930;2023-04-24T04:06:07;10.06;;;2.40;;
60641;SDS011;46837;52.446;-1.930;2023-04-24T04:07:07;9.74;;;3.96;;
60641;SDS011;46837;52.446;-1.930;2023-04-24T04:08:07;6.72;;;2.56;;
60641;SDS011;46837;52.446;-1.930;2023-04-24T04:09:07;11.18;;;2.14;;
60641;SDS011;46837;52.446;-1.930;2023-04-24T04:10:07;11.14;;;5.02;;
60641;SDS011;46837;52.446;-1.930;2023-04-24T04:11:07;5.42;;;2.60;;
60641;SDS011;46837;52.446;-1.930;2023-04-24T04:12:07;4.78;;;2.42;;
60641;SDS011;46837;52.446;-1.930;2023-04-24T04:13:07;6.20;;;1.76;;
60641;SDS011;46837;52.446;-1.930;2023-04-24T04:14:07;6.20;;;2.16;;
60641;SDS011;46837;52.446;-1.930;2023-04-24T04:15:07;11.68;;;2.98;;
60641;SDS011;46837;52.446;-1.930;2023-04-24T04:16:07;3.94;;;1.74;;
60641;SDS011;46837;52.446;-1.930;2023-04-24T04:17:07;6.00;;;1.90;;
60641;SDS011;46837;52.446;-1.930;2023-04-24T04:18:07;4.78;;;1.64;;
60641;SDS011;46837;52.446;-1.930;2023-04-24T04:19:07;3.00;;;1.84;;
60641;SDS011;46837;52.446;-1.930;2023-04-24T04:20:10;5.34;;;1.48;;
60641;SDS011;46837;52.446;-1.930;2023-04-24T04:21:07;7.92;;;1.94;;
60641;SDS011;46837;52.446;-1.930;2023-04-24T04:22:07;3.62;;;2.22;;
60641;SDS011;46837;52.446;-1.930;2023-04-24T04:23:07;5.28;;;1.72;;
60641;SDS011;46837;52.446;-1.930;2023-04-24T04:24:07;6.96;;;2.32;;
60641;SDS011;46837;52.446;-1.930;2023-04-24T04:25:07;12.92;;;2.18;;
60641;SDS011;46837;52.446;-1.930;2023-04-24T04:26:07;5.48;;;1.82;;
60641;SDS011;46837;52.446;-1.930;2023-04-24T04:27:07;8.20;;;2.14;;
60641;SDS011;46837;52.446;-1.930;2023-04-24T04:28:07;4.82;;;1.32;;
60641;SDS011;46837;52.446;-1.930;2023-04-24T04:29:07;7.72;;;2.36;;
60641;SDS011;46837;52.446;-1.930;2023-04-24T04:30:07;7.46;;;1.60;;
60641;SDS011;46837;52.446;-1.930;2023-04-24T04:31:07;8.04;;;1.78;;
60641;SDS011;46837;52.446;-1.930;2023-04-24T04:32:07;5.96;;;1.12;;
60641;SDS011;46837;52.446;-1.930;2023-04-24T04:33:07;6.58;;;1.36;;
60641;SDS011;46837;52.446;-1.930;2023-04-24T04:34:07;8.96;;;2.06;;
60641;SDS011;46837;52.446;-1.930;2023-04-24T04:35:07;10.62;;;1.76;;
60641;SDS011;46837;52.446;-1.930;2023-04-24T04:36:07;4.52;;;1.46;;
60641;SDS011;46837;52.446;-1.930;2023-04-24T04:37:07;4.74;;;1.42;;
60641;SDS011;46837;52.446;-1.930;2023-04-24T04:38:09;6.54;;;2.14;;
60641;SDS011;46837;52.446;-1.930;2023-04-24T04:39:07;6.72;;;1.94;;
60641;SDS011;46837;52.446;-1.930;2023-04-24T04:40:11;6.62;;;1.50;;
60641;SDS011;46837;52.446;-1.930;2023-04-24T04:41:07;2.90;;;1.56;;
60641;SDS011;46837;52.446;-1.930;2023-04-24T04:42:07;4.38;;;1.70;;
60641;SDS011;46837;52.446;-1.930;2023-04-24T04:43:07;5.74;;;1.32;;
60641;SDS011;46837;52.446;-1.930;2023-04-24T04:44:07;4.92;;;1.70;;
60641;SDS011;46837;52.446;-1.930;2023-04-24T04:45:07;8.30;;;2.14;;
60641;SDS011;46837;52.446;-1.930;2023-04-24T04:46:07;5.10;;;2.02;;
60641;SDS011;46837;52.446;-1.930;2023-04-24T04:47:07;7.06;;;3.08;;
60641;SDS011;46837;52.446;-1.930;2023-04-24T04:48:08;11.82;;;1.52;;
60641;SDS011;46837;52.446;-1.930;2023-04-24T04:49:07;5.50;;;1.46;;
60641;SDS011;46837;52.446;-1.930;2023-04-24T04:50:07;6.70;;;1.62;;
60641;SDS011;46837;52.446;-1.930;2023-04-24T04:51:07;7.78;;;1.90;;
60641;SDS011;46837;52.446;-1.930;2023-04-24T04:52:07;4.84;;;1.68;;
60641;SDS011;46837;52.446;-1.930;2023-04-24T04:53:07;9.30;;;1.82;;
60641;SDS011;46837;52.446;-1.930;2023-04-24T04:54:07;6.78;;;2.02;;
60641;SDS011;46837;52.446;-1.930;2023-04-24T04:55:07;6.62;;;1.80;;
60641;SDS011;46837;52.446;-1.930;2023-04-24T04:56:07;11.28;;;1.86;;
60641;SDS011;46837;52.446;-1.930;2023-04-24T04:57:07;4.64;;;1.26;;
60641;SDS011;46837;52.446;-1.930;2023-04-24T04:58:07;4.86;;;1.54;;
60641;SDS011;46837;52.446;-1.930;2023-04-24T04:59:07;4.30;;;1.68;;
60641;SDS011;46837;52.446;-1.930;2023-04-24T05:00:07;5.00;;;1.86;;
60641;SDS011;46837;52.446;-1.930;2023-04-24T05:01:07;11.20;;;1.78;;
60641;SDS011;46837;52.446;-1.930;2023-04-24T05:02:07;9.86;;;1.82;;
60641;SDS011;46837;52.446;-1.930;2023-04-24T05:03:07;5.86;;;1.88;;
60641;SDS011;46837;52.446;-1.930;2023-04-24T05:04:07;4.12;;;1.72;;
60641;SDS011;46837;52.446;-1.930;2023-04-24T05:05:07;9.06;;;3.52;;
60641;SDS011;46837;52.446;-1.930;2023-04-24T05:06:07;3.28;;;1.90;;
60641;SDS011;46837;52.446;-1.930;2023-04-24T05:07:07;5.46;;;1.78;;
60641;SDS011;46837;52.446;-1.930;2023-04-24T05:08:07;6.44;;;2.32;;
60641;SDS011;46837;52.446;-1.930;2023-04-24T05:09:07;8.22;;;1.86;;
60641;SDS011;46837;52.446;-1.930;2023-04-24T05:10:07;6.16;;;1.54;;
60641;SDS011;46837;52.446;-1.930;2023-04-24T05:11:07;5.06;;;1.48;;
60641;SDS011;46837;52.446;-1.930;2023-04-24T05:12:07;12.80;;;2.34;;
60641;SDS011;46837;52.446;-1.930;2023-04-24T05:13:07;5.70;;;2.10;;
60641;SDS011;46837;52.446;-1.930;2023-04-24T05:14:07;4.04;;;1.34;;
60641;SDS011;46837;52.446;-1.930;2023-04-24T05:15:07;5.82;;;1.84;;
60641;SDS011;46837;52.446;-1.930;2023-04-24T05:16:07;4.56;;;1.44;;
60641;SDS011;46837;52.446;-1.930;2023-04-24T05:17:07;5.74;;;1.56;;
60641;SDS011;46837;52.446;-1.930;2023-04-24T05:18:07;7.48;;;1.58;;
60641;SDS011;46837;52.446;-1.930;2023-04-24T05:19:07;3.30;;;1.76;;
60641;SDS011;46837;52.446;-1.930;2023-04-24T05:20:07;10.84;;;2.24;;
60641;SDS011;46837;52.446;-1.930;2023-04-24T05:21:07;5.70;;;1.96;;
60641;SDS011;46837;52.446;-1.930;2023-04-24T05:22:07;4.50;;;1.76;;
60641;SDS011;46837;52.446;-1.930;2023-04-24T05:23:07;9.60;;;1.66;;
60641;SDS011;46837;52.446;-1.930;2023-04-24T05:24:07;7.46;;;2.64;;
60641;SDS011;46837;52.446;-1.930;2023-04-24T05:25:07;4.90;;;2.14;;
60641;SDS011;46837;52.446;-1.930;2023-04-24T05:26:07;7.78;;;2.20;;
60641;SDS011;46837;52.446;-1.930;2023-04-24T05:27:07;5.28;;;1.78;;
60641;SDS011;46837;52.446;-1.930;2023-04-24T05:28:07;4.08;;;1.42;;
60641;SDS011;46837;52.446;-1.930;2023-04-24T05:29:07;4.34;;;2.36;;
60641;SDS011;46837;52.446;-1.930;2023-04-24T05:30:07;4.84;;;1.78;;
60641;SDS011;46837;52.446;-1.930;2023-04-24T05:31:07;4.66;;;1.56;;
60641;SDS011;46837;52.446;-1.930;2023-04-24T05:32:07;3.78;;;1.10;;
60641;SDS011;46837;52.446;-1.930;2023-04-24T05:33:07;8.22;;;2.08;;
60641;SDS011;46837;52.446;-1.930;2023-04-24T05:34:07;8.32;;;1.94;;
60641;SDS011;46837;52.446;-1.930;2023-04-24T05:35:07;5.94;;;1.54;;
60641;SDS011;46837;52.446;-1.930;2023-04-24T05:36:07;4.54;;;1.12;;
60641;SDS011;46837;52.446;-1.930;2023-04-24T05:37:09;4.26;;;1.26;;
60641;SDS011;46837;52.446;-1.930;2023-04-24T05:38:07;8.00;;;2.16;;
60641;SDS011;46837;52.446;-1.930;2023-04-24T05:39:07;8.12;;;1.92;;
60641;SDS011;46837;52.446;-1.930;2023-04-24T05:40:07;6.04;;;1.38;;
60641;SDS011;46837;52.446;-1.930;2023-04-24T05:41:07;6.00;;;1.60;;
60641;SDS011;46837;52.446;-1.930;2023-04-24T05:42:07;7.12;;;1.58;;
60641;SDS011;46837;52.446;-1.930;2023-04-24T05:43:07;9.00;;;1.86;;
60641;SDS011;46837;52.446;-1.930;2023-04-24T05:44:07;2.88;;;1.36;;
60641;SDS011;46837;52.446;-1.930;2023-04-24T05:45:07;4.84;;;2.04;;
60641;SDS011;46837;52.446;-1.930;2023-04-24T05:46:07;4.24;;;1.20;;
60641;SDS011;46837;52.446;-1.930;2023-04-24T05:47:07;8.04;;;1.28;;
60641;SDS011;46837;52.446;-1.930;2023-04-24T05:48:07;4.90;;;1.28;;
60641;SDS011;46837;52.446;-1.930;2023-04-24T05:49:07;7.34;;;1.54;;
60641;SDS011;46837;52.446;-1.930;2023-04-24T05:50:07;5.88;;;1.82;;
60641;SDS011;46837;52.446;-1.930;2023-04-24T05:51:07;7.72;;;2.12;;
60641;SDS011;46837;52.446;-1.930;2023-04-24T05:52:07;8.84;;;2.84;;